createdAt,value
2022-09-13T00:01:47.621Z,9.73
2022-09-13T00:04:14.057Z,9.68
2022-09-13T00:06:40.477Z,9.45
2022-09-13T00:09:07.169Z,11.25
2022-09-13T00:11:33.566Z,8.80
2022-09-13T00:13:59.897Z,9.27
2022-09-13T00:16:27.055Z,9.48
2022-09-13T00:18:53.985Z,9.65
2022-09-13T00:21:20.925Z,8.65
2022-09-13T00:23:48.416Z,8.80
2022-09-13T00:26:16.338Z,7.85
2022-09-13T00:28:42.922Z,7.47
2022-09-13T00:31:09.672Z,7.00
2022-09-13T00:33:36.089Z,8.38
2022-09-13T00:36:06.606Z,8.50
2022-09-13T00:38:35.128Z,7.55
2022-09-13T00:41:02.787Z,7.00
2022-09-13T00:43:41.717Z,7.65
2022-09-13T00:46:08.476Z,8.45
2022-09-13T00:48:36.041Z,7.57
2022-09-13T00:51:02.645Z,8.05
2022-09-13T00:53:30.416Z,7.57
2022-09-13T00:56:02.575Z,7.80
2022-09-13T00:58:37.113Z,8.32
2022-09-13T01:01:04.457Z,9.30
2022-09-13T01:03:33.789Z,9.07
2022-09-13T01:06:03.784Z,9.20
2022-09-13T01:08:31.325Z,9.95
2022-09-13T01:11:00.104Z,10.25
2022-09-13T01:13:28.292Z,11.52
2022-09-13T01:15:54.697Z,10.18
2022-09-13T01:18:21.137Z,11.57
2022-09-13T01:21:06.298Z,11.15
2022-09-13T01:23:45.699Z,10.60
2022-09-13T01:26:30.882Z,9.65
2022-09-13T01:29:16.104Z,11.30
2022-09-13T01:31:42.496Z,9.65
2022-09-13T01:34:09.330Z,10.98
2022-09-13T01:36:42.584Z,8.95
2022-09-13T01:39:14.353Z,10.30
2022-09-13T01:41:42.810Z,10.25
2022-09-13T01:44:29.741Z,10.13
2022-09-13T01:47:11.388Z,9.95
2022-09-13T01:49:37.768Z,10.05
2022-09-13T01:52:07.745Z,10.10
2022-09-13T01:54:57.045Z,9.80
2022-09-13T01:57:35.682Z,9.73
2022-09-13T02:00:10.249Z,9.40
2022-09-13T02:02:43.417Z,8.90
2022-09-13T02:05:16.304Z,10.07
2022-09-13T02:07:43.812Z,10.23
2022-09-13T02:10:13.962Z,9.60
2022-09-13T02:12:42.322Z,10.48
2022-09-13T02:15:11.897Z,9.25
2022-09-13T02:17:39.520Z,8.88
2022-09-13T02:20:12.377Z,9.90
2022-09-13T02:22:41.869Z,9.82
2022-09-13T02:25:09.966Z,9.73
2022-09-13T02:27:37.665Z,9.48
2022-09-13T02:30:08.385Z,9.90
2022-09-13T02:32:34.772Z,10.68
2022-09-13T02:35:03.833Z,10.30
2022-09-13T02:37:32.404Z,9.77
2022-09-13T02:40:02.762Z,9.48
2022-09-13T02:42:30.957Z,11.02
2022-09-13T02:44:59.941Z,8.95
2022-09-13T02:47:52.332Z,9.52
2022-09-13T02:50:18.668Z,10.30
2022-09-13T02:52:45.013Z,10.32
2022-09-13T02:55:17.411Z,10.60
2022-09-13T02:57:46.850Z,10.52
2022-09-13T03:00:13.660Z,10.45
2022-09-13T03:02:41.893Z,10.50
2022-09-13T03:05:08.277Z,11.23
2022-09-13T03:07:34.687Z,10.85
2022-09-13T03:10:05.832Z,10.70
2022-09-13T03:12:33.218Z,12.13
2022-09-13T03:14:59.654Z,11.75
2022-09-13T03:17:32.592Z,11.95
2022-09-13T03:20:07.420Z,11.30
2022-09-13T03:22:52.768Z,12.55
2022-09-13T03:25:27.578Z,12.00
2022-09-13T03:28:04.289Z,11.35
2022-09-13T03:30:34.146Z,11.93
2022-09-13T03:33:06.109Z,13.02
2022-09-13T03:35:49.564Z,12.35
2022-09-13T03:38:19.229Z,13.10
2022-09-13T03:40:50.673Z,12.88
2022-09-13T03:43:24.566Z,11.60
2022-09-13T03:45:59.571Z,11.98
2022-09-13T03:48:27.409Z,12.15
2022-09-13T03:50:54.138Z,13.20
2022-09-13T03:53:23.276Z,11.18
2022-09-13T03:55:49.604Z,13.48
2022-09-13T03:58:20.709Z,12.75
2022-09-13T04:00:47.134Z,13.05
2022-09-13T04:03:13.948Z,12.48
2022-09-13T04:05:40.699Z,11.23
2022-09-13T04:08:08.336Z,11.02
2022-09-13T04:10:35.608Z,11.65
2022-09-13T04:13:02.093Z,10.98
2022-09-13T04:15:28.617Z,11.73
2022-09-13T04:17:54.973Z,11.73
2022-09-13T04:20:21.993Z,10.13
2022-09-13T04:22:55.341Z,11.63
2022-09-13T04:25:22.313Z,11.98
2022-09-13T04:27:49.258Z,11.40
2022-09-13T04:30:15.693Z,12.07
2022-09-13T04:32:42.886Z,10.18
2022-09-13T04:35:09.472Z,11.30
2022-09-13T04:37:35.965Z,11.02
2022-09-13T04:40:02.458Z,11.43
2022-09-13T04:42:28.830Z,10.73
2022-09-13T04:44:56.201Z,11.30
2022-09-13T04:47:23.056Z,10.40
2022-09-13T04:49:49.483Z,11.95
2022-09-13T04:52:15.903Z,10.25
2022-09-13T04:54:42.351Z,11.10
2022-09-13T04:57:08.817Z,11.15
2022-09-13T04:59:35.226Z,10.77
2022-09-13T05:02:01.656Z,8.88
2022-09-13T05:04:28.109Z,10.30
2022-09-13T05:06:54.562Z,10.20
2022-09-13T05:09:20.933Z,11.60
2022-09-13T05:11:47.286Z,10.73
2022-09-13T05:14:13.683Z,9.73
2022-09-13T05:16:40.537Z,10.00
2022-09-13T05:19:07.052Z,9.55
2022-09-13T05:21:33.635Z,11.13
2022-09-13T05:24:00.097Z,9.48
2022-09-13T05:26:29.241Z,10.10
2022-09-13T05:28:55.553Z,9.30
2022-09-13T05:31:24.828Z,9.93
2022-09-13T05:33:56.103Z,9.27
2022-09-13T05:36:22.704Z,9.73
2022-09-13T05:38:49.785Z,9.95
2022-09-13T05:41:21.460Z,9.40
2022-09-13T05:43:48.077Z,10.13
2022-09-13T05:46:15.566Z,9.80
2022-09-13T05:48:42.380Z,10.60
2022-09-13T05:51:11.252Z,10.20
2022-09-13T05:53:40.962Z,9.68
2022-09-13T05:56:16.384Z,10.60
2022-09-13T05:58:44.041Z,10.45
2022-09-13T06:01:11.201Z,10.85
2022-09-13T06:03:37.719Z,10.15
2022-09-13T06:06:04.683Z,10.27
2022-09-13T06:08:31.956Z,10.43
2022-09-13T06:11:08.949Z,10.30
2022-09-13T06:13:35.713Z,11.10
2022-09-13T06:16:03.026Z,11.63
2022-09-13T06:18:29.718Z,11.65
2022-09-13T06:21:03.548Z,10.63
2022-09-13T06:23:30.217Z,10.90
2022-09-13T06:26:15.500Z,10.07
2022-09-13T06:28:42.292Z,10.38
2022-09-13T06:31:09.978Z,12.02
2022-09-13T06:33:37.014Z,12.27
2022-09-13T06:36:04.717Z,12.35
2022-09-13T06:38:31.212Z,11.43
2022-09-13T06:41:04.552Z,12.35
2022-09-13T06:43:30.997Z,13.43
2022-09-13T06:46:01.455Z,12.85
2022-09-13T06:48:30.473Z,13.30
2022-09-13T06:50:58.576Z,12.27
2022-09-13T06:53:24.897Z,13.25
2022-09-13T06:55:59.529Z,12.70
2022-09-13T06:58:26.061Z,12.77
2022-09-13T07:00:56.025Z,13.85
2022-09-13T07:03:23.619Z,13.50
2022-09-13T07:05:49.937Z,14.82
2022-09-13T07:08:18.581Z,14.77
2022-09-13T07:10:44.872Z,14.30
2022-09-13T07:13:11.177Z,15.70
2022-09-13T07:15:37.545Z,14.70
2022-09-13T07:18:03.998Z,16.58
2022-09-13T07:20:30.296Z,16.10
2022-09-13T07:22:56.632Z,16.02
2022-09-13T07:25:22.994Z,17.77
2022-09-13T07:27:49.345Z,17.45
2022-09-13T07:30:15.699Z,18.42
2022-09-13T07:32:42.482Z,17.65
2022-09-13T07:35:08.872Z,16.75
2022-09-13T07:37:35.172Z,15.45
2022-09-13T07:40:02.051Z,16.55
2022-09-13T07:42:28.530Z,17.17
2022-09-13T07:44:54.828Z,16.58
2022-09-13T07:47:21.129Z,19.38
2022-09-13T07:49:47.561Z,23.88
2022-09-13T07:52:13.957Z,22.33
2022-09-13T07:54:40.261Z,21.40
2022-09-13T07:57:06.560Z,22.42
2022-09-13T07:59:32.853Z,22.10
2022-09-13T08:01:59.234Z,23.55
2022-09-13T08:04:25.678Z,22.63
2022-09-13T08:06:52.052Z,24.05
2022-09-13T08:09:18.802Z,23.85
2022-09-13T08:11:46.371Z,19.60
2022-09-13T08:14:14.028Z,21.98
2022-09-13T08:16:40.471Z,20.05
2022-09-13T08:19:07.452Z,20.42
2022-09-13T08:21:35.121Z,21.98
2022-09-13T08:24:02.307Z,20.95
2022-09-13T08:26:29.425Z,20.38
2022-09-13T08:28:57.140Z,19.38
2022-09-13T08:31:23.559Z,18.67
2022-09-13T08:33:50.137Z,18.98
2022-09-13T08:36:19.909Z,19.88
2022-09-13T08:38:47.454Z,19.58
2022-09-13T08:41:32.626Z,19.33
2022-09-13T08:44:01.989Z,17.35
2022-09-13T08:46:40.119Z,18.77
2022-09-13T08:49:16.603Z,17.05
2022-09-13T08:51:42.965Z,17.90
2022-09-13T08:54:11.822Z,16.15
2022-09-13T08:56:43.898Z,15.80
2022-09-13T09:01:45.166Z,15.68
2022-09-13T09:04:11.557Z,16.17
2022-09-13T09:06:38.097Z,16.48
2022-09-13T09:09:07.306Z,15.95
2022-09-13T09:11:52.509Z,10.75
2022-09-13T09:14:31.157Z,12.80
2022-09-13T09:17:03.961Z,12.75
2022-09-13T09:19:35.101Z,9.82
2022-09-13T09:22:06.098Z,6.40
2022-09-13T09:24:36.271Z,10.50
2022-09-13T09:27:12.460Z,10.60
2022-09-13T09:29:40.166Z,10.20
2022-09-13T09:32:25.421Z,6.93
2022-09-13T09:34:51.709Z,10.43
2022-09-13T09:37:25.936Z,11.02
2022-09-13T09:39:53.109Z,11.50
2022-09-13T09:42:24.825Z,10.55
2022-09-13T09:45:18.704Z,8.70
2022-09-13T09:47:46.538Z,9.82
2022-09-13T09:50:18.457Z,9.98
2022-09-13T09:55:22.945Z,8.93
2022-09-13T09:57:49.949Z,9.70
2022-09-13T10:00:16.670Z,9.73
2022-09-13T10:02:44.089Z,10.20
2022-09-13T10:05:13.060Z,9.43
2022-09-13T10:07:40.773Z,9.32
2022-09-13T10:10:25.992Z,10.43
2022-09-13T10:12:55.965Z,8.80
2022-09-13T10:15:24.595Z,9.85
2022-09-13T10:18:02.208Z,8.45
2022-09-13T10:20:28.797Z,8.13
2022-09-13T10:23:17.033Z,6.95
2022-09-13T10:25:48.027Z,7.03
2022-09-13T10:28:16.665Z,6.95
2022-09-13T10:30:43.042Z,7.68
2022-09-13T10:33:27.777Z,7.38
2022-09-13T10:35:55.896Z,5.13
2022-09-13T10:38:40.858Z,5.97
2022-09-13T10:41:19.712Z,6.60
2022-09-13T10:43:46.040Z,4.38
2022-09-13T10:46:14.785Z,4.90
2022-09-13T10:48:45.966Z,4.80
2022-09-13T10:51:21.328Z,4.75
2022-09-13T10:53:47.909Z,4.57
2022-09-13T10:56:21.772Z,4.65
2022-09-13T10:58:48.146Z,4.47
2022-09-13T11:01:40.284Z,5.18
2022-09-13T11:04:26.748Z,5.10
2022-09-13T11:07:03.838Z,5.75
2022-09-13T11:09:39.338Z,6.90
2022-09-13T11:12:13.504Z,5.85
2022-09-13T11:14:46.868Z,4.72
2022-09-13T11:17:20.978Z,4.22
2022-09-13T11:19:59.273Z,4.78
2022-09-13T11:22:25.625Z,4.95
2022-09-13T11:25:03.432Z,4.28
2022-09-13T11:27:35.765Z,3.40
2022-09-13T11:30:02.048Z,3.80
2022-09-13T11:32:31.436Z,3.78
2022-09-13T11:35:18.042Z,3.28
2022-09-13T11:37:58.598Z,3.17
2022-09-13T11:40:35.619Z,2.60
2022-09-13T11:43:20.616Z,3.75
2022-09-13T11:46:05.785Z,3.70
2022-09-13T11:48:38.272Z,4.32
2022-09-13T11:51:20.036Z,4.20
2022-09-13T11:53:55.905Z,3.50
2022-09-13T11:56:26.101Z,4.32
2022-09-13T11:58:59.417Z,3.72
2022-09-13T12:01:28.601Z,4.13
2022-09-13T12:04:04.361Z,3.90
2022-09-13T12:06:53.609Z,3.35
2022-09-13T12:09:22.195Z,4.10
2022-09-13T12:11:52.406Z,3.80
2022-09-13T12:14:21.544Z,3.58
2022-09-13T12:16:50.080Z,3.58
2022-09-13T12:19:19.153Z,3.72
2022-09-13T12:21:46.757Z,3.65
2022-09-13T12:24:33.414Z,4.28
2022-09-13T12:27:05.833Z,4.20
2022-09-13T12:29:36.489Z,3.30
2022-09-13T12:32:04.091Z,2.95
2022-09-13T12:34:54.536Z,3.40
2022-09-13T12:37:20.816Z,3.40
2022-09-13T12:40:09.710Z,3.30
2022-09-13T12:42:36.044Z,4.78
2022-09-13T12:45:08.536Z,3.75
2022-09-13T12:47:53.741Z,3.92
2022-09-13T12:50:44.166Z,2.20
2022-09-13T12:53:29.477Z,1.92
2022-09-13T12:56:15.738Z,1.80
2022-09-13T12:59:08.305Z,1.83
2022-09-13T13:01:34.821Z,1.58
2022-09-13T13:04:01.208Z,2.17
2022-09-13T13:06:54.028Z,2.20
2022-09-13T13:09:27.863Z,2.30
2022-09-13T13:11:55.513Z,2.00
2022-09-13T13:14:27.454Z,1.77
2022-09-13T13:16:53.818Z,2.22
2022-09-13T13:19:36.850Z,2.28
2022-09-13T13:22:35.829Z,1.80
2022-09-13T13:25:21.127Z,1.80
2022-09-13T13:27:51.453Z,1.63
2022-09-13T13:30:34.349Z,1.60
2022-09-13T13:33:13.167Z,1.30
2022-09-13T13:35:39.561Z,1.50
2022-09-13T13:38:25.440Z,1.50
2022-09-13T13:40:52.389Z,1.40
2022-09-13T13:43:32.162Z,1.10
2022-09-13T13:46:18.488Z,1.52
2022-09-13T13:48:45.147Z,1.02
2022-09-13T13:51:14.212Z,1.35
2022-09-13T13:53:43.736Z,1.40
2022-09-13T13:56:13.124Z,1.20
2022-09-13T13:58:45.993Z,1.67
2022-09-13T14:01:22.454Z,1.45
2022-09-13T14:04:03.450Z,1.20
2022-09-13T14:06:49.951Z,1.38
2022-09-13T14:09:39.528Z,1.20
2022-09-13T14:12:12.501Z,1.50
2022-09-13T14:14:48.316Z,1.02
2022-09-13T14:17:41.124Z,1.38
2022-09-13T14:20:13.005Z,1.65
2022-09-13T14:22:39.341Z,1.40
2022-09-13T14:25:22.509Z,1.52
2022-09-13T14:27:49.385Z,1.70
2022-09-13T14:30:21.975Z,1.70
2022-09-13T14:32:50.237Z,1.95
2022-09-13T14:35:36.800Z,1.88
2022-09-13T14:38:19.971Z,1.58
2022-09-13T14:40:50.216Z,1.50
2022-09-13T14:43:17.261Z,1.70
2022-09-13T14:45:44.319Z,1.70
2022-09-13T14:48:15.285Z,1.60
2022-09-13T14:50:46.132Z,1.50
2022-09-13T14:53:20.947Z,1.98
2022-09-13T14:56:01.369Z,1.40
2022-09-13T14:58:48.402Z,1.58
2022-09-13T15:01:19.986Z,1.17
2022-09-13T15:03:47.408Z,1.42
2022-09-13T15:06:22.109Z,1.70
2022-09-13T15:08:48.888Z,1.50
2022-09-13T15:11:26.194Z,1.80
2022-09-13T15:14:00.908Z,1.83
2022-09-13T15:16:34.304Z,1.48
2022-09-13T15:19:26.918Z,1.70
2022-09-13T15:24:27.137Z,1.60
2022-09-13T15:27:03.944Z,1.60
2022-09-13T15:29:34.664Z,1.58
2022-09-13T15:32:02.258Z,1.52
2022-09-13T15:34:28.806Z,1.67
2022-09-13T15:37:01.249Z,1.58
2022-09-13T15:39:27.690Z,1.50
2022-09-13T15:41:59.190Z,1.60
2022-09-13T15:44:26.164Z,1.45
2022-09-13T15:46:57.254Z,1.45
2022-09-13T15:49:26.355Z,1.00
2022-09-13T15:51:53.479Z,0.88
2022-09-13T15:54:19.835Z,1.40
2022-09-13T15:56:47.035Z,1.40
2022-09-13T15:59:14.525Z,1.10
2022-09-13T16:01:41.601Z,1.70
2022-09-13T16:04:07.995Z,1.30
2022-09-13T16:06:34.729Z,1.27
2022-09-13T16:09:01.300Z,1.48
2022-09-13T16:11:28.208Z,1.75
2022-09-13T16:13:55.333Z,1.30
2022-09-13T16:16:21.696Z,1.25
2022-09-13T16:18:48.094Z,1.83
2022-09-13T16:21:15.225Z,1.20
2022-09-13T16:23:41.725Z,1.30
2022-09-13T16:26:08.118Z,1.30
2022-09-13T16:28:34.617Z,1.58
2022-09-13T16:31:00.954Z,1.40
2022-09-13T16:33:27.459Z,1.23
2022-09-13T16:35:57.924Z,1.35
2022-09-13T16:38:26.666Z,1.50
2022-09-13T16:40:53.389Z,1.30
2022-09-13T16:43:19.765Z,1.20
2022-09-13T16:45:46.177Z,1.42
2022-09-13T16:48:12.557Z,1.23
2022-09-13T16:50:40.099Z,1.27
2022-09-13T16:53:06.576Z,1.23
2022-09-13T16:55:32.988Z,1.40
2022-09-13T16:57:59.374Z,1.13
2022-09-13T17:00:28.554Z,1.60
2022-09-13T17:02:55.947Z,1.88
2022-09-13T17:05:23.204Z,1.60
2022-09-13T17:07:50.675Z,1.67
2022-09-13T17:10:17.510Z,1.33
2022-09-13T17:12:45.902Z,2.40
2022-09-13T17:15:12.488Z,2.45
2022-09-13T17:17:38.833Z,2.20
2022-09-13T17:20:08.201Z,1.52
2022-09-13T17:22:34.712Z,1.65
2022-09-13T17:25:01.545Z,1.08
2022-09-13T17:27:28.024Z,1.52
2022-09-13T17:29:54.382Z,1.85
2022-09-13T17:32:20.789Z,1.02
2022-09-13T17:34:47.218Z,1.35
2022-09-13T17:37:13.521Z,1.10
2022-09-13T17:39:39.933Z,1.20
2022-09-13T17:42:06.313Z,1.20
2022-09-13T17:44:32.583Z,1.15
2022-09-13T17:46:59.309Z,1.10
2022-09-13T17:49:25.620Z,1.02
2022-09-13T17:51:51.982Z,0.85
2022-09-13T17:54:18.396Z,1.20
2022-09-13T17:56:44.929Z,1.38
2022-09-13T17:59:15.347Z,1.10
2022-09-13T18:01:43.144Z,1.20
2022-09-13T18:04:09.798Z,1.38
2022-09-13T18:06:36.525Z,1.23
2022-09-13T18:09:03.341Z,1.20
2022-09-13T18:11:29.931Z,0.80
2022-09-13T18:13:56.882Z,1.17
2022-09-13T18:16:24.498Z,1.40
2022-09-13T18:18:51.816Z,1.13
2022-09-13T18:21:19.506Z,1.33
2022-09-13T18:23:46.918Z,1.10
2022-09-13T18:26:14.946Z,1.02
2022-09-13T18:28:43.220Z,1.02
2022-09-13T18:31:12.311Z,1.20
2022-09-13T18:33:38.855Z,0.75
2022-09-13T18:36:06.425Z,1.10
2022-09-13T18:38:34.013Z,1.20
2022-09-13T18:41:01.696Z,0.90
2022-09-13T18:43:29.352Z,0.90
2022-09-13T18:45:56.825Z,1.05
2022-09-13T18:48:23.396Z,1.02
2022-09-13T18:50:49.856Z,0.93
2022-09-13T18:53:16.217Z,0.95
2022-09-13T18:55:42.507Z,0.90
2022-09-13T18:58:12.951Z,0.70
2022-09-13T19:00:40.260Z,0.70
2022-09-13T19:03:12.262Z,1.00
2022-09-13T19:05:39.374Z,0.82
2022-09-13T19:08:09.857Z,0.90
2022-09-13T19:10:37.182Z,1.10
2022-09-13T19:13:04.413Z,1.25
2022-09-13T19:15:31.308Z,1.00
2022-09-13T19:17:57.737Z,1.17
2022-09-13T19:20:24.048Z,1.05
2022-09-13T19:22:52.155Z,0.80
2022-09-13T19:25:18.560Z,1.45
2022-09-13T19:27:44.939Z,0.75
2022-09-13T19:30:12.697Z,1.17
2022-09-13T19:32:39.048Z,0.75
2022-09-13T19:35:05.572Z,1.08
2022-09-13T19:37:32.374Z,0.90
2022-09-13T19:39:58.738Z,1.30
2022-09-13T19:42:25.172Z,1.20
2022-09-13T19:44:51.501Z,1.02
2022-09-13T19:48:02.231Z,0.93
2022-09-13T19:50:04.632Z,1.27
2022-09-13T19:52:30.997Z,0.65
2022-09-13T19:54:58.581Z,0.85
2022-09-13T19:57:25.297Z,0.88
2022-09-13T19:59:51.674Z,0.95
2022-09-13T20:02:18.160Z,0.70
2022-09-13T20:04:45.940Z,1.08
2022-09-13T20:07:13.332Z,0.77
2022-09-13T20:09:41.673Z,1.08
2022-09-13T20:12:08.854Z,0.73
2022-09-13T20:14:35.354Z,1.10
2022-09-13T20:17:04.113Z,1.05
2022-09-13T20:19:40.917Z,1.17
2022-09-13T20:22:09.590Z,1.17
2022-09-13T20:24:35.922Z,1.00
2022-09-13T20:27:02.364Z,0.70
2022-09-13T20:29:28.664Z,1.40
2022-09-13T20:31:55.433Z,0.93
2022-09-13T20:34:22.129Z,1.00
2022-09-13T20:36:48.545Z,0.95
2022-09-13T20:39:15.206Z,1.27
2022-09-13T20:41:43.085Z,1.40
2022-09-13T20:44:09.508Z,0.85
2022-09-13T20:46:37.505Z,1.08
2022-09-13T20:49:05.311Z,1.15
2022-09-13T20:51:34.705Z,1.40
2022-09-13T20:54:01.350Z,1.30
2022-09-13T20:56:28.663Z,1.52
2022-09-13T20:58:57.661Z,1.30
2022-09-13T21:01:24.683Z,1.25
2022-09-13T21:03:52.245Z,1.35
2022-09-13T21:06:19.549Z,1.52
2022-09-13T21:08:49.331Z,1.80
2022-09-13T21:11:29.146Z,1.63
2022-09-13T21:13:58.484Z,1.73
2022-09-13T21:16:26.010Z,1.10
2022-09-13T21:18:53.135Z,1.30
2022-09-13T21:21:21.421Z,1.63
2022-09-13T21:23:48.289Z,1.35
2022-09-13T21:26:17.990Z,1.55
2022-09-13T21:28:44.600Z,1.33
2022-09-13T21:31:12.447Z,1.48
2022-09-13T21:33:39.640Z,1.08
2022-09-13T21:36:06.517Z,1.83
2022-09-13T21:38:34.142Z,1.98
2022-09-13T21:41:01.588Z,1.42
2022-09-13T21:43:28.083Z,1.30
2022-09-13T21:46:08.071Z,1.33
2022-09-13T21:48:35.222Z,1.50
2022-09-13T21:51:09.164Z,1.40
2022-09-13T21:53:36.654Z,1.70
2022-09-13T21:56:06.999Z,1.48
2022-09-13T21:58:34.329Z,1.40
2022-09-13T22:01:03.324Z,1.75
2022-09-13T22:03:29.978Z,1.15
2022-09-13T22:05:56.866Z,1.20
2022-09-13T22:08:24.574Z,1.40
2022-09-13T22:10:51.001Z,1.30
2022-09-13T22:13:17.379Z,1.45
2022-09-13T22:15:43.753Z,1.35
2022-09-13T22:18:10.252Z,1.60
2022-09-13T22:20:36.598Z,1.48
2022-09-13T22:23:03.085Z,1.48
2022-09-13T22:25:29.453Z,1.42
2022-09-13T22:27:55.948Z,1.50
2022-09-13T22:30:22.328Z,1.38
2022-09-13T22:32:48.646Z,1.83
2022-09-13T22:35:15.041Z,1.77
2022-09-13T22:37:41.406Z,1.50
2022-09-13T22:40:08.041Z,1.13
2022-09-13T22:42:34.482Z,1.58
2022-09-13T22:45:00.835Z,1.42
2022-09-13T22:47:27.609Z,1.42
2022-09-13T22:49:54.089Z,1.38
2022-09-13T22:52:20.691Z,1.65
2022-09-13T22:54:50.674Z,1.20
2022-09-13T22:57:17.117Z,1.50
2022-09-13T22:59:43.506Z,1.83
2022-09-13T23:02:09.832Z,1.58
2022-09-13T23:04:36.173Z,1.58
2022-09-13T23:07:02.500Z,1.27
2022-09-13T23:09:28.885Z,1.60
2022-09-13T23:11:55.266Z,1.58
2022-09-13T23:14:22.621Z,1.38
2022-09-13T23:16:50.422Z,1.77
2022-09-13T23:19:17.917Z,1.70
2022-09-13T23:21:44.478Z,1.60
2022-09-13T23:24:11.968Z,1.15
2022-09-13T23:26:38.642Z,1.83
2022-09-13T23:29:05.442Z,2.35
2022-09-13T23:31:33.545Z,1.70
2022-09-13T23:34:01.836Z,1.73
2022-09-13T23:36:29.737Z,1.52
2022-09-13T23:38:57.296Z,1.88
2022-09-13T23:41:25.465Z,2.33
2022-09-13T23:43:52.575Z,1.90
2022-09-13T23:46:19.504Z,1.25
2022-09-13T23:48:46.058Z,1.95
2022-09-13T23:51:13.949Z,2.67
2022-09-13T23:53:40.616Z,1.60
2022-09-13T23:56:07.996Z,1.90
2022-09-13T23:58:35.226Z,1.80
